Time;durP1;ratioP1;P1;durP2;ratioP2;P2;SDS_P1;SDS_P2;PMS_P1;PMS_P2;Temp;Humidity;BMP_temperature;BMP_pressure;BME280_temperature;BME280_humidity;BME280_pressure;Samples;Min_cycle;Max_cycle;Signal;HPM_P1;HPM_P2
2022/10/26 00:00:42;;;;;;;4.95;2.10;;;14.60;99.90;;;;;;5000574;28;20035;-74
2022/10/26 00:03:07;;;;;;;9.57;2.38;;;14.70;99.90;;;;;;4998028;28;20031;-73
2022/10/26 00:05:33;;;;;;;5.53;2.28;;;14.70;99.90;;;;;;4995684;28;20037;-73
2022/10/26 00:08:00;;;;;;;8.93;2.20;;;14.70;99.90;;;;;;4994333;28;20030;-73
2022/10/26 00:10:25;;;;;;;8.27;2.13;;;14.60;99.90;;;;;;4995469;28;20384;-74
2022/10/26 00:12:51;;;;;;;6.75;2.45;;;14.60;99.90;;;;;;4990859;28;20030;-74
2022/10/26 00:15:18;;;;;;;5.93;1.80;;;14.70;99.90;;;;;;5001432;28;20026;-73
2022/10/26 00:17:45;;;;;;;11.15;2.30;;;14.70;99.90;;;;;;4996724;28;20056;-73
2022/10/26 00:20:11;;;;;;;4.53;2.40;;;14.70;99.90;;;;;;5007000;28;20033;-73
2022/10/26 00:22:37;;;;;;;4.85;2.22;;;14.60;99.90;;;;;;5000571;28;20042;-73
2022/10/26 00:25:03;;;;;;;6.43;2.45;;;14.60;99.90;;;;;;4994842;28;20385;-73
2022/10/26 00:27:29;;;;;;;6.82;2.30;;;14.60;99.90;;;;;;5005407;28;20034;-73
2022/10/26 00:29:55;;;;;;;4.53;2.30;;;14.40;99.90;;;;;;5003026;28;20440;-73
2022/10/26 00:32:20;;;;;;;8.02;2.17;;;14.40;99.90;;;;;;5000213;28;20034;-74
2022/10/26 00:34:46;;;;;;;6.35;1.73;;;14.40;99.90;;;;;;4999296;28;20022;-73
2022/10/26 00:37:11;;;;;;;4.15;2.08;;;14.30;99.90;;;;;;5000271;28;20595;-73
2022/10/26 00:39:37;;;;;;;6.07;2.33;;;14.20;99.90;;;;;;5003436;28;20038;-73
2022/10/26 00:42:03;;;;;;;8.20;2.45;;;14.30;99.90;;;;;;5001768;28;20392;-73
2022/10/26 00:44:57;;;;;;;5.07;2.25;;;14.30;99.90;;;;;;4993966;28;20031;-74
2022/10/26 00:48:07;;;;;;;6.22;1.92;;;14.20;99.90;;;;;;4993156;28;20034;-73
2022/10/26 00:50:37;;;;;;;6.40;2.10;;;14.20;99.90;;;;;;4988042;28;20128;-73
2022/10/26 00:53:05;;;;;;;10.45;2.45;;;14.20;99.90;;;;;;4999381;28;20042;-73
2022/10/26 00:55:39;;;;;;;4.85;1.75;;;14.20;99.90;;;;;;4998420;28;20092;-73
2022/10/26 00:58:07;;;;;;;4.20;1.85;;;14.20;99.90;;;;;;4994648;28;20129;-74
2022/10/26 01:00:33;;;;;;;5.15;2.13;;;14.30;99.90;;;;;;4998656;28;20038;-73
2022/10/26 01:03:03;;;;;;;5.05;2.63;;;14.40;99.90;;;;;;4999996;28;20034;-73
2022/10/26 01:05:30;;;;;;;5.88;2.38;;;14.50;99.90;;;;;;4995014;28;20112;-73
2022/10/26 01:07:57;;;;;;;9.82;2.30;;;14.50;99.90;;;;;;5000014;28;20092;-74
2022/10/26 01:10:24;;;;;;;6.07;2.10;;;14.60;99.90;;;;;;5009539;28;20507;-73
2022/10/26 01:12:50;;;;;;;9.55;1.95;;;14.60;99.90;;;;;;4997410;28;20485;-73
2022/10/26 01:15:16;;;;;;;4.97;2.22;;;14.60;99.90;;;;;;4996507;28;21070;-73
2022/10/26 01:17:55;;;;;;;5.20;2.20;;;14.40;99.90;;;;;;5000050;28;20409;-73
2022/10/26 01:21:06;;;;;;;8.48;2.30;;;14.30;99.90;;;;;;4996346;28;20080;-73
2022/10/26 01:23:50;;;;;;;6.05;2.03;;;14.30;99.90;;;;;;5004681;28;20468;-73
2022/10/26 01:27:00;;;;;;;6.50;1.92;;;14.30;99.90;;;;;;4991013;28;20030;-73
2022/10/26 01:29:31;;;;;;;4.68;2.25;;;14.30;99.90;;;;;;4991566;28;20030;-74
2022/10/26 01:32:20;;;;;;;5.38;2.13;;;14.10;99.90;;;;;;4991666;28;20042;-74
2022/10/26 01:34:58;;;;;;;8.23;2.92;;;14.10;99.90;;;;;;4995327;28;20061;-74
2022/10/26 01:37:29;;;;;;;15.90;3.38;;;14.30;99.90;;;;;;5002727;28;20053;-74
2022/10/26 01:40:19;;;;;;;7.13;3.28;;;14.30;99.90;;;;;;4999661;28;20030;-74
2022/10/26 01:42:50;;;;;;;6.95;2.55;;;14.20;99.90;;;;;;4999444;28;20083;-74
2022/10/26 01:45:17;;;;;;;6.45;2.65;;;14.30;99.90;;;;;;4996780;28;20710;-74
2022/10/26 01:47:44;;;;;;;5.72;2.35;;;14.20;99.90;;;;;;5002334;28;20034;-74
2022/10/26 01:50:10;;;;;;;12.30;2.70;;;14.20;99.90;;;;;;5003498;28;20484;-74
2022/10/26 01:52:36;;;;;;;7.93;2.90;;;14.10;99.90;;;;;;4990393;28;20033;-74
2022/10/26 01:55:05;;;;;;;10.68;3.20;;;14.00;99.90;;;;;;4995270;28;20106;-74
2022/10/26 01:57:34;;;;;;;5.82;2.75;;;14.00;99.90;;;;;;4993585;28;20553;-74
2022/10/26 02:00:10;;;;;;;8.68;2.60;;;14.10;99.90;;;;;;4996366;28;20061;-74
2022/10/26 02:02:54;;;;;;;5.00;2.53;;;14.30;99.90;;;;;;4987716;28;20480;-74
2022/10/26 02:05:39;;;;;;;9.88;2.53;;;14.40;99.90;;;;;;4998500;28;20496;-74
2022/10/26 02:08:20;;;;;;;5.65;3.10;;;14.30;99.90;;;;;;4993189;28;20038;-74
2022/10/26 02:11:01;;;;;;;7.53;3.05;;;14.30;99.90;;;;;;4990824;28;20038;-74
2022/10/26 02:14:06;;;;;;;6.65;2.75;;;14.30;99.90;;;;;;4997856;28;20026;-74
2022/10/26 02:16:43;;;;;;;7.15;2.60;;;14.30;99.90;;;;;;4996106;28;20034;-74
2022/10/26 02:19:11;;;;;;;6.43;2.78;;;14.30;99.90;;;;;;4998564;28;20029;-74
2022/10/26 02:21:43;;;;;;;6.55;2.80;;;14.20;99.90;;;;;;4989919;28;20480;-74
2022/10/26 02:24:11;;;;;;;4.75;2.70;;;14.20;99.90;;;;;;4991741;28;20026;-74
2022/10/26 02:26:40;;;;;;;4.47;2.03;;;14.20;99.90;;;;;;5001114;28;20026;-74
2022/10/26 02:29:10;;;;;;;5.60;2.55;;;14.30;99.90;;;;;;4996555;28;20073;-74
2022/10/26 02:31:37;;;;;;;5.60;2.45;;;14.10;99.90;;;;;;4997143;28;20023;-74
2022/10/26 02:34:06;;;;;;;5.97;1.98;;;14.00;99.90;;;;;;4989718;28;20096;-74
2022/10/26 02:36:35;;;;;;;8.00;2.30;;;13.90;99.90;;;;;;5001481;28;20482;-74
2022/10/26 02:39:04;;;;;;;6.47;2.53;;;13.90;99.90;;;;;;4991663;28;20041;-74
2022/10/26 02:41:32;;;;;;;7.20;2.30;;;13.90;99.90;;;;;;4996045;28;20104;-74
2022/10/26 02:44:13;;;;;;;4.68;2.33;;;13.80;99.90;;;;;;5001740;28;20026;-74
2022/10/26 02:46:39;;;;;;;8.10;2.90;;;13.80;99.90;;;;;;4997397;28;20038;-74
2022/10/26 02:49:05;;;;;;;10.65;3.38;;;13.90;99.90;;;;;;4988118;28;20030;-74
2022/10/26 02:51:49;;;;;;;8.85;2.50;;;13.80;99.90;;;;;;4997209;28;20092;-74
2022/10/26 02:54:22;;;;;;;6.00;3.00;;;13.80;99.90;;;;;;4996555;28;20038;-74
2022/10/26 02:57:10;;;;;;;11.70;3.42;;;14.00;99.90;;;;;;4994440;28;20361;-74
2022/10/26 02:59:40;;;;;;;5.68;2.47;;;14.00;99.90;;;;;;4999513;28;20499;-74
2022/10/26 03:02:06;;;;;;;7.78;2.92;;;13.90;99.90;;;;;;4996244;28;20453;-73
2022/10/26 03:04:33;;;;;;;6.78;2.60;;;13.90;99.90;;;;;;4990953;28;20128;-73
2022/10/26 03:06:59;;;;;;;8.55;3.15;;;13.90;99.90;;;;;;4993133;28;20037;-73
2022/10/26 03:09:25;;;;;;;4.30;2.30;;;14.00;99.90;;;;;;4989819;28;20030;-73
2022/10/26 03:11:52;;;;;;;9.82;2.63;;;13.90;99.90;;;;;;4986971;28;20038;-73
2022/10/26 03:14:17;;;;;;;5.80;2.88;;;14.00;99.90;;;;;;4989729;28;20040;-73
2022/10/26 03:16:43;;;;;;;6.85;2.92;;;14.10;99.90;;;;;;4990504;28;20161;-73
2022/10/26 03:19:08;;;;;;;8.80;4.38;;;14.10;99.90;;;;;;4991131;28;20033;-73
2022/10/26 03:21:35;;;;;;;10.18;2.65;;;14.00;99.90;;;;;;4990725;28;20054;-73
2022/10/26 03:24:01;;;;;;;6.25;2.05;;;14.00;99.90;;;;;;4986981;28;20029;-73
2022/10/26 03:26:27;;;;;;;7.07;2.45;;;14.10;99.90;;;;;;4990298;28;20030;-73
2022/10/26 03:28:52;;;;;;;6.28;2.45;;;14.10;99.90;;;;;;4996066;28;20037;-73
2022/10/26 03:31:18;;;;;;;8.20;2.38;;;14.10;99.90;;;;;;4992044;28;20530;-73
2022/10/26 03:33:43;;;;;;;7.18;3.03;;;14.10;99.90;;;;;;4985678;28;20077;-73
2022/10/26 03:36:09;;;;;;;10.25;2.58;;;14.10;99.90;;;;;;4988804;28;20415;-73
2022/10/26 03:38:35;;;;;;;8.10;2.78;;;14.10;99.90;;;;;;4990918;28;20037;-73
2022/10/26 03:41:00;;;;;;;5.43;2.47;;;14.10;99.90;;;;;;4993321;28;20433;-73
2022/10/26 03:43:26;;;;;;;5.20;2.35;;;14.00;99.90;;;;;;4990938;28;20037;-73
2022/10/26 03:45:52;;;;;;;5.90;1.88;;;14.10;99.90;;;;;;4987453;28;20460;-73
2022/10/26 03:48:18;;;;;;;7.32;2.38;;;14.20;99.90;;;;;;4997877;28;20507;-73
2022/10/26 03:50:43;;;;;;;6.45;2.70;;;14.00;99.90;;;;;;4997655;28;20566;-73
2022/10/26 03:53:09;;;;;;;5.45;2.35;;;14.00;99.90;;;;;;4992566;28;20049;-73
2022/10/26 03:55:35;;;;;;;9.40;2.75;;;13.90;99.90;;;;;;4994606;28;20023;-73
2022/10/26 03:58:01;;;;;;;6.95;2.38;;;13.80;99.90;;;;;;4995446;28;20031;-73
2022/10/26 04:00:27;;;;;;;6.00;2.67;;;13.80;99.90;;;;;;4989583;28;20031;-73
2022/10/26 04:02:55;;;;;;;11.32;2.88;;;13.80;99.90;;;;;;4988819;28;20037;-73
2022/10/26 04:05:20;;;;;;;8.07;2.60;;;13.70;99.90;;;;;;4991305;28;20762;-73
2022/10/26 04:07:54;;;;;;;8.00;3.40;;;13.70;99.90;;;;;;4993196;28;20133;-73
2022/10/26 04:10:20;;;;;;;8.20;2.83;;;13.80;99.90;;;;;;4995082;28;20089;-73
2022/10/26 04:12:46;;;;;;;8.95;3.25;;;13.70;99.90;;;;;;4985307;28;20045;-73
2022/10/26 04:15:11;;;;;;;11.48;3.22;;;13.70;99.90;;;;;;4990981;28;20641;-73
2022/10/26 04:17:37;;;;;;;4.43;1.90;;;13.60;99.90;;;;;;4985743;28;20054;-73
2022/10/26 04:20:03;;;;;;;10.68;2.70;;;13.60;99.90;;;;;;4985699;28;20515;-73
2022/10/26 04:22:29;;;;;;;8.77;2.33;;;13.50;99.90;;;;;;4986685;28;20037;-73
2022/10/26 04:24:54;;;;;;;4.55;2.40;;;13.40;99.90;;;;;;4993915;28;20037;-73
2022/10/26 04:27:20;;;;;;;8.75;2.80;;;13.20;99.90;;;;;;4986010;28;20109;-73
2022/10/26 04:29:45;;;;;;;5.95;2.58;;;13.20;99.90;;;;;;4986442;28;20037;-73
2022/10/26 04:32:11;;;;;;;5.72;2.88;;;13.10;99.90;;;;;;4992364;28;20030;-73
2022/10/26 04:34:37;;;;;;;4.18;2.28;;;13.20;99.90;;;;;;4996119;28;20034;-73
2022/10/26 04:37:02;;;;;;;7.28;2.83;;;13.30;99.90;;;;;;4994121;28;20061;-73
2022/10/26 04:39:28;;;;;;;7.63;2.83;;;13.30;99.90;;;;;;4999197;28;20025;-73
2022/10/26 04:41:54;;;;;;;7.20;2.75;;;13.30;99.90;;;;;;4985726;28;20224;-73
2022/10/26 04:44:20;;;;;;;10.05;2.90;;;13.30;99.90;;;;;;4990274;28;20034;-73
2022/10/26 04:46:45;;;;;;;7.45;2.65;;;13.30;99.90;;;;;;4989789;28;20154;-73
2022/10/26 04:49:11;;;;;;;6.25;2.65;;;13.20;99.90;;;;;;4988761;28;20059;-73
2022/10/26 04:51:36;;;;;;;5.35;2.65;;;13.20;99.90;;;;;;4987309;28;20049;-73
2022/10/26 04:54:02;;;;;;;5.75;2.85;;;13.10;99.90;;;;;;4991250;28;20057;-73
2022/10/26 04:56:28;;;;;;;8.38;2.60;;;13.10;99.90;;;;;;4992451;28;20045;-73
2022/10/26 04:58:54;;;;;;;4.72;2.30;;;13.10;99.90;;;;;;4990740;28;20117;-73
2022/10/26 05:01:20;;;;;;;5.07;2.33;;;13.20;99.90;;;;;;4990770;28;20113;-73
2022/10/26 05:03:52;;;;;;;6.10;2.83;;;13.30;99.90;;;;;;4992829;28;20184;-73
2022/10/26 05:06:18;;;;;;;7.32;2.45;;;13.20;99.90;;;;;;4989067;28;20054;-73
2022/10/26 05:08:44;;;;;;;7.07;2.35;;;13.20;99.90;;;;;;4993076;28;20025;-73
2022/10/26 05:11:10;;;;;;;8.20;2.22;;;13.30;99.90;;;;;;4997896;28;20026;-73
2022/10/26 05:13:36;;;;;;;4.50;2.20;;;13.40;99.90;;;;;;4994906;28;20029;-73
2022/10/26 05:16:01;;;;;;;6.43;2.67;;;13.40;99.90;;;;;;4990134;28;20034;-73
2022/10/26 05:18:27;;;;;;;6.45;2.55;;;13.40;99.90;;;;;;4993181;28;20077;-73
2022/10/26 05:20:53;;;;;;;6.90;2.45;;;13.40;99.90;;;;;;4992970;28;20034;-73
2022/10/26 05:23:19;;;;;;;6.30;2.40;;;13.50;99.90;;;;;;4994367;28;20093;-72
2022/10/26 05:25:45;;;;;;;6.53;2.05;;;13.40;99.90;;;;;;4990061;28;20038;-73
2022/10/26 05:28:12;;;;;;;9.85;2.83;;;13.40;99.90;;;;;;4987435;28;20494;-73
2022/10/26 05:30:39;;;;;;;8.98;2.75;;;13.40;99.90;;;;;;4993035;28;20037;-73
2022/10/26 05:33:04;;;;;;;9.13;2.60;;;13.20;99.90;;;;;;4990492;28;20045;-73
2022/10/26 05:35:31;;;;;;;5.05;3.10;;;13.00;99.90;;;;;;4996462;28;20033;-73
2022/10/26 05:37:57;;;;;;;5.75;2.00;;;13.00;99.90;;;;;;4993867;28;20155;-73
2022/10/26 05:40:23;;;;;;;6.05;2.28;;;13.00;99.90;;;;;;4987655;28;20061;-73
2022/10/26 05:42:53;;;;;;;7.80;2.13;;;12.90;99.90;;;;;;4993348;28;20476;-74
2022/10/26 05:45:19;;;;;;;7.20;1.90;;;12.90;99.90;;;;;;4992020;28;20353;-72
2022/10/26 05:47:45;;;;;;;5.65;2.10;;;12.90;99.90;;;;;;4989212;28;20113;-74
2022/10/26 05:50:12;;;;;;;8.43;2.50;;;12.90;99.90;;;;;;4988681;28;20026;-74
2022/10/26 05:52:42;;;;;;;4.07;2.47;;;12.80;99.90;;;;;;4990204;28;20125;-74
2022/10/26 05:55:09;;;;;;;5.18;2.38;;;12.80;99.90;;;;;;4985084;28;20042;-74
2022/10/26 05:57:35;;;;;;;8.70;2.97;;;12.90;99.90;;;;;;4993727;28;20468;-74
2022/10/26 06:00:05;;;;;;;6.32;2.25;;;13.00;99.90;;;;;;4989309;28;20026;-75
2022/10/26 06:02:45;;;;;;;9.30;2.28;;;13.10;99.90;;;;;;4988222;28;20061;-74
2022/10/26 06:05:20;;;;;;;6.82;2.40;;;13.10;99.90;;;;;;4985891;28;20126;-74
2022/10/26 06:07:46;;;;;;;10.02;3.35;;;13.00;99.90;;;;;;4986709;28;20428;-74
2022/10/26 06:10:12;;;;;;;4.45;2.30;;;13.00;99.90;;;;;;4991728;28;20034;-75
2022/10/26 06:12:38;;;;;;;6.40;2.20;;;13.10;99.90;;;;;;4991586;28;20033;-74
2022/10/26 06:15:04;;;;;;;4.43;2.38;;;13.10;99.90;;;;;;4987202;28;20038;-74
2022/10/26 06:17:56;;;;;;;4.50;2.10;;;13.10;99.90;;;;;;4985935;28;20140;-74
2022/10/26 06:20:27;;;;;;;6.38;1.92;;;13.00;99.90;;;;;;4986355;28;20038;-74
2022/10/26 06:23:08;;;;;;;6.10;2.78;;;13.00;99.90;;;;;;4990786;28;20507;-74
2022/10/26 06:25:51;;;;;;;5.40;2.13;;;13.00;99.90;;;;;;4989492;28;20030;-74
2022/10/26 06:28:40;;;;;;;5.35;2.00;;;13.10;99.90;;;;;;4990452;28;20030;-74
2022/10/26 06:31:06;;;;;;;4.15;2.08;;;13.20;99.90;;;;;;4986420;28;20388;-74
2022/10/26 06:33:32;;;;;;;5.30;1.90;;;13.30;99.90;;;;;;4989518;28;20095;-74
2022/10/26 06:36:05;;;;;;;4.63;2.22;;;13.30;99.90;;;;;;4988268;28;20504;-74
2022/10/26 06:38:34;;;;;;;4.00;2.35;;;13.20;99.90;;;;;;4990778;28;20587;-74
2022/10/26 06:41:00;;;;;;;4.32;2.22;;;13.20;99.90;;;;;;4991151;28;20030;-75
2022/10/26 06:43:32;;;;;;;8.35;2.17;;;13.30;99.90;;;;;;4989453;28;20034;-75
2022/10/26 06:46:34;;;;;;;4.47;1.77;;;13.40;99.90;;;;;;4985709;28;20026;-74
2022/10/26 06:49:06;;;;;;;5.75;1.92;;;13.60;99.90;;;;;;4989652;28;20030;-74
2022/10/26 06:51:40;;;;;;;4.90;1.80;;;13.60;99.90;;;;;;4991911;28;20038;-74
2022/10/26 06:54:40;;;;;;;5.68;1.75;;;13.70;99.90;;;;;;4992358;28;20038;-74
2022/10/26 06:57:10;;;;;;;6.07;1.92;;;13.70;99.90;;;;;;4991070;28;20069;-74
2022/10/26 06:59:45;;;;;;;8.88;1.67;;;13.70;99.90;;;;;;4991913;28;20071;-74
2022/10/26 07:02:13;;;;;;;4.45;1.95;;;13.70;99.90;;;;;;4992947;28;20088;-74
2022/10/26 07:04:39;;;;;;;5.90;2.17;;;13.80;99.90;;;;;;5005744;28;20477;-74
2022/10/26 07:07:05;;;;;;;9.15;2.20;;;13.70;99.90;;;;;;4987668;28;20030;-75
2022/10/26 07:09:31;;;;;;;3.70;1.83;;;13.80;99.90;;;;;;4984978;28;20060;-73
2022/10/26 07:11:56;;;;;;;5.97;2.50;;;14.00;99.90;;;;;;4983035;28;20091;-75
2022/10/26 07:14:22;;;;;;;4.45;2.00;;;14.10;99.90;;;;;;4986853;28;20655;-74
2022/10/26 07:16:47;;;;;;;7.45;2.78;;;14.10;99.90;;;;;;4985400;28;20504;-74
2022/10/26 07:19:13;;;;;;;6.32;2.03;;;14.20;99.90;;;;;;4991002;28;20534;-74
2022/10/26 07:21:38;;;;;;;4.07;2.38;;;14.00;99.90;;;;;;4983289;28;20029;-75
2022/10/26 07:24:04;;;;;;;6.40;2.92;;;13.80;99.90;;;;;;4987969;28;20034;-74
2022/10/26 07:26:30;;;;;;;8.38;3.28;;;13.80;99.90;;;;;;4995645;28;20610;-74
2022/10/26 07:28:56;;;;;;;6.38;2.58;;;13.70;99.90;;;;;;4988009;28;20033;-74
2022/10/26 07:31:21;;;;;;;7.78;2.60;;;13.70;99.90;;;;;;4991641;28;20038;-75
2022/10/26 07:33:47;;;;;;;7.03;2.42;;;13.70;99.90;;;;;;4984023;28;20030;-75
2022/10/26 07:36:12;;;;;;;9.95;2.40;;;13.80;99.90;;;;;;4988018;28;20184;-75
2022/10/26 07:38:38;;;;;;;10.27;3.20;;;13.70;99.90;;;;;;4991863;28;20527;-74
2022/10/26 07:41:05;;;;;;;5.32;2.53;;;13.80;99.90;;;;;;4989934;28;20037;-75
2022/10/26 07:43:31;;;;;;;4.80;2.50;;;13.80;99.90;;;;;;4988827;28;20030;-74
2022/10/26 07:45:57;;;;;;;4.00;2.00;;;13.80;99.90;;;;;;4980894;28;20036;-75
2022/10/26 07:48:22;;;;;;;5.25;2.30;;;13.90;99.90;;;;;;4989297;28;20034;-74
2022/10/26 07:50:48;;;;;;;6.68;2.05;;;14.00;99.90;;;;;;4989793;28;20022;-74
2022/10/26 07:53:14;;;;;;;4.25;1.90;;;14.10;99.90;;;;;;4990789;28;20034;-75
2022/10/26 07:55:39;;;;;;;5.18;1.88;;;14.20;99.90;;;;;;4989047;28;20033;-75
2022/10/26 07:58:05;;;;;;;5.47;1.98;;;14.40;99.90;;;;;;4990795;28;20129;-75
2022/10/26 08:00:31;;;;;;;6.05;2.42;;;14.50;99.90;;;;;;4983857;28;20034;-75
2022/10/26 08:02:56;;;;;;;3.20;1.70;;;14.60;99.90;;;;;;4995544;28;20038;-75
2022/10/26 08:05:22;;;;;;;6.03;2.00;;;14.60;99.90;;;;;;4987448;28;20041;-74
2022/10/26 08:07:48;;;;;;;4.60;2.33;;;14.70;99.90;;;;;;4988118;28;20539;-75
2022/10/26 08:10:14;;;;;;;6.07;1.55;;;14.70;99.90;;;;;;4984961;28;20049;-75
2022/10/26 08:12:41;;;;;;;5.65;2.05;;;14.70;99.90;;;;;;4993907;28;20098;-74
2022/10/26 08:15:08;;;;;;;5.47;1.80;;;14.70;99.90;;;;;;4992857;28;20197;-74
2022/10/26 08:17:34;;;;;;;4.93;2.08;;;14.70;99.90;;;;;;4988417;28;20046;-75
2022/10/26 08:20:00;;;;;;;7.22;1.70;;;14.80;99.90;;;;;;4991125;28;20488;-75
2022/10/26 08:22:28;;;;;;;5.22;2.00;;;14.80;99.90;;;;;;4992617;28;20022;-75
2022/10/26 08:24:54;;;;;;;5.47;2.33;;;14.90;99.90;;;;;;4986860;28;20022;-74
2022/10/26 08:27:19;;;;;;;3.03;1.58;;;14.80;99.90;;;;;;4991088;28;20076;-74
2022/10/26 08:29:45;;;;;;;5.43;2.00;;;14.90;99.90;;;;;;4987263;28;20065;-74
2022/10/26 08:32:10;;;;;;;4.82;2.08;;;14.90;99.90;;;;;;4987657;28;20037;-75
2022/10/26 08:34:36;;;;;;;4.13;1.67;;;15.00;99.90;;;;;;4987819;28;20033;-75
2022/10/26 08:37:02;;;;;;;6.20;1.80;;;14.90;99.90;;;;;;4985203;28;20097;-74
2022/10/26 08:39:29;;;;;;;10.35;1.98;;;14.90;99.90;;;;;;4988390;28;20037;-75
2022/10/26 08:42:18;;;;;;;3.60;1.63;;;15.00;99.90;;;;;;4986015;28;20092;-75
2022/10/26 08:44:47;;;;;;;5.97;2.00;;;15.00;99.90;;;;;;4988875;28;20046;-75
2022/10/26 08:47:21;;;;;;;9.85;2.88;;;15.10;99.90;;;;;;4992505;28;20605;-74
2022/10/26 08:50:09;;;;;;;7.15;1.88;;;15.10;99.90;;;;;;4997127;28;20069;-75
2022/10/26 08:53:10;;;;;;;4.60;1.60;;;15.10;99.90;;;;;;4992359;28;20049;-74
2022/10/26 08:55:46;;;;;;;5.93;2.35;;;15.20;99.90;;;;;;4986558;28;20058;-75
2022/10/26 08:58:20;;;;;;;5.45;2.10;;;15.20;99.90;;;;;;4993559;28;20037;-75
2022/10/26 09:00:48;;;;;;;5.53;1.98;;;15.10;99.90;;;;;;4996511;28;20175;-75
2022/10/26 09:03:15;;;;;;;4.40;1.90;;;15.10;99.90;;;;;;4990268;28;20152;-74
2022/10/26 09:06:03;;;;;;;5.53;1.95;;;15.10;99.90;;;;;;4991973;28;20023;-75
2022/10/26 09:08:41;;;;;;;6.10;2.00;;;15.20;99.90;;;;;;4990471;28;20031;-75
2022/10/26 09:11:22;;;;;;;8.50;2.47;;;15.10;99.90;;;;;;4991813;28;20037;-75
2022/10/26 09:13:57;;;;;;;7.13;2.30;;;15.20;99.90;;;;;;4992380;28;20578;-75
2022/10/26 09:16:41;;;;;;;6.50;2.17;;;15.30;99.90;;;;;;4992987;28;20049;-74
2022/10/26 09:19:22;;;;;;;4.78;2.17;;;15.30;99.90;;;;;;4991404;28;20027;-74
2022/10/26 09:21:53;;;;;;;7.03;2.15;;;15.30;99.90;;;;;;4996673;28;20036;-75
2022/10/26 09:24:30;;;;;;;4.55;2.22;;;15.40;99.90;;;;;;4988574;28;20026;-75
2022/10/26 09:27:25;;;;;;;4.72;2.15;;;15.50;99.90;;;;;;4991607;28;20018;-75
2022/10/26 09:29:52;;;;;;;5.07;1.60;;;15.50;99.90;;;;;;4989536;28;20030;-75
2022/10/26 09:32:20;;;;;;;3.75;1.50;;;15.70;99.90;;;;;;4997358;28;20122;-75
2022/10/26 09:34:50;;;;;;;4.63;2.30;;;15.80;99.90;;;;;;4988243;28;20695;-74
2022/10/26 09:37:39;;;;;;;5.57;1.58;;;15.80;99.90;;;;;;4992021;28;20614;-75
2022/10/26 09:40:13;;;;;;;4.85;1.80;;;15.90;99.90;;;;;;4984546;28;20034;-75
2022/10/26 09:43:05;;;;;;;4.70;1.58;;;15.90;99.90;;;;;;4991864;28;20038;-75
2022/10/26 09:45:52;;;;;;;3.35;1.13;;;16.00;99.90;;;;;;4985459;28;20049;-75
2022/10/26 09:48:42;;;;;;;4.78;1.73;;;16.10;99.90;;;;;;4992328;28;20029;-75
2022/10/26 09:51:09;;;;;;;4.75;1.70;;;16.20;99.90;;;;;;4988752;28;20036;-75
2022/10/26 09:53:35;;;;;;;2.83;1.48;;;16.20;99.90;;;;;;4992292;28;20033;-75
2022/10/26 09:56:11;;;;;;;6.43;2.42;;;16.30;99.90;;;;;;4991903;28;20468;-75
2022/10/26 09:58:47;;;;;;;4.97;1.73;;;16.30;99.90;;;;;;5001645;28;20468;-75
2022/10/26 10:01:31;;;;;;;7.80;1.83;;;16.40;99.90;;;;;;4984544;28;20026;-75
2022/10/26 10:04:12;;;;;;;8.07;2.78;;;16.40;99.90;;;;;;4986017;28;20046;-74
2022/10/26 10:06:43;;;;;;;4.80;1.80;;;16.40;99.90;;;;;;4992816;28;20423;-75
2022/10/26 10:09:20;;;;;;;6.60;1.95;;;16.60;99.90;;;;;;4995964;28;20053;-75
2022/10/26 10:11:54;;;;;;;3.97;1.83;;;16.80;99.90;;;;;;4993528;28;20026;-75
2022/10/26 10:14:32;;;;;;;6.50;1.58;;;16.70;99.90;;;;;;4998047;28;20550;-75
2022/10/26 10:17:04;;;;;;;3.25;1.35;;;16.70;99.90;;;;;;4997103;28;20045;-75
2022/10/26 10:19:36;;;;;;;6.45;2.83;;;16.80;99.90;;;;;;4991559;28;20034;-75
2022/10/26 10:22:27;;;;;;;4.38;1.60;;;16.90;99.90;;;;;;4993055;28;20552;-75
2022/10/26 10:24:58;;;;;;;5.75;1.90;;;17.00;99.90;;;;;;4991329;28;21046;-75
2022/10/26 10:27:25;;;;;;;7.07;1.65;;;17.10;99.90;;;;;;4995342;28;20639;-75
2022/10/26 10:29:54;;;;;;;4.50;1.77;;;17.10;99.90;;;;;;4989349;28;20026;-75
2022/10/26 10:32:24;;;;;;;7.97;2.15;;;17.10;99.90;;;;;;4994815;28;20022;-75
2022/10/26 10:34:52;;;;;;;5.15;2.00;;;17.10;99.90;;;;;;4994177;28;20034;-75
2022/10/26 10:37:29;;;;;;;7.35;2.40;;;17.40;99.90;;;;;;4993451;28;20053;-75
2022/10/26 10:40:06;;;;;;;7.15;1.67;;;17.50;99.90;;;;;;4994475;28;20030;-74
2022/10/26 10:42:34;;;;;;;5.10;1.83;;;17.50;99.90;;;;;;4992611;28;20030;-75
2022/10/26 10:45:01;;;;;;;4.25;1.85;;;17.70;99.90;;;;;;4992464;28;20142;-75
2022/10/26 10:47:32;;;;;;;9.20;2.08;;;17.80;99.90;;;;;;4991491;28;20026;-75
2022/10/26 10:50:27;;;;;;;5.15;1.77;;;17.80;99.90;;;;;;4989810;28;20070;-74
2022/10/26 10:52:52;;;;;;;5.25;2.25;;;17.90;99.90;;;;;;4988373;28;20160;-75
2022/10/26 10:55:21;;;;;;;4.95;2.00;;;17.90;99.90;;;;;;4999647;28;20113;-75
2022/10/26 10:57:47;;;;;;;6.07;2.15;;;17.90;99.90;;;;;;4992497;28;20038;-75
2022/10/26 11:00:13;;;;;;;4.05;1.60;;;17.80;99.90;;;;;;4988914;28;20275;-75
2022/10/26 11:03:00;;;;;;;4.65;1.90;;;17.80;99.90;;;;;;4990053;28;20031;-75
2022/10/26 11:05:59;;;;;;;5.05;1.95;;;17.80;99.90;;;;;;5000738;28;20053;-75
2022/10/26 11:08:46;;;;;;;5.90;1.95;;;18.00;99.90;;;;;;4992398;28;20416;-75
2022/10/26 11:11:20;;;;;;;4.18;1.70;;;18.10;99.90;;;;;;4991235;28;20473;-75
2022/10/26 11:13:57;;;;;;;6.55;2.17;;;18.30;99.90;;;;;;4991808;28;20473;-75
2022/10/26 11:16:41;;;;;;;5.05;1.85;;;18.50;99.90;;;;;;4990012;28;20049;-75
2022/10/26 11:19:21;;;;;;;4.00;1.58;;;18.60;99.90;;;;;;4987833;28;20444;-75
2022/10/26 11:21:53;;;;;;;7.05;1.88;;;18.60;99.90;;;;;;4997218;28;20031;-72
2022/10/26 11:24:35;;;;;;;4.18;1.80;;;18.70;99.90;;;;;;4990074;28;20880;-73
2022/10/26 11:27:32;;;;;;;6.18;1.63;;;18.80;99.90;;;;;;4990562;28;20045;-73
2022/10/26 11:30:18;;;;;;;5.35;1.92;;;18.90;99.90;;;;;;4992736;28;20137;-73
2022/10/26 11:33:07;;;;;;;4.28;1.90;;;18.90;99.90;;;;;;4987065;28;20160;-73
2022/10/26 11:35:36;;;;;;;6.50;1.85;;;19.00;99.90;;;;;;4985051;28;20075;-73
2022/10/26 11:38:11;;;;;;;5.72;2.03;;;19.00;99.90;;;;;;4996184;28;20085;-71
2022/10/26 11:41:01;;;;;;;3.88;1.90;;;19.00;99.90;;;;;;4983950;28;20026;-74
2022/10/26 11:43:43;;;;;;;5.30;1.88;;;19.00;99.90;;;;;;4988883;28;20506;-73
2022/10/26 11:46:43;;;;;;;4.40;1.75;;;19.10;99.90;;;;;;4991973;28;20040;-71
2022/10/26 11:49:24;;;;;;;4.35;1.73;;;19.00;99.90;;;;;;4988886;28;20038;-71
2022/10/26 11:51:58;;;;;;;4.63;1.70;;;19.10;99.90;;;;;;4983171;28;20041;-74
2022/10/26 11:54:31;;;;;;;3.38;1.45;;;19.20;99.90;;;;;;4984325;28;20062;-72
2022/10/26 11:56:58;;;;;;;5.88;2.03;;;19.20;99.90;;;;;;4993651;28;20049;-73
2022/10/26 11:59:27;;;;;;;4.85;1.65;;;19.10;99.90;;;;;;4984652;28;20092;-73
2022/10/26 12:02:03;;;;;;;4.90;2.63;;;19.10;99.90;;;;;;4989438;28;20086;-72
2022/10/26 12:04:32;;;;;;;4.30;2.22;;;19.20;99.90;;;;;;4984376;28;20109;-73
2022/10/26 12:06:59;;;;;;;5.75;2.33;;;19.30;99.90;;;;;;4986422;28;20615;-75
2022/10/26 12:09:33;;;;;;;3.92;1.80;;;19.30;99.90;;;;;;4989389;28;20081;-75
2022/10/26 12:12:23;;;;;;;6.37;1.60;;;19.30;99.90;;;;;;4990537;28;20077;-72
2022/10/26 12:15:37;;;;;;;4.80;1.90;;;19.40;99.90;;;;;;4988559;28;20053;-74
2022/10/26 12:18:29;;;;;;;6.53;2.35;;;19.40;99.90;;;;;;4999818;28;20052;-73
2022/10/26 12:21:01;;;;;;;5.43;1.80;;;19.40;99.90;;;;;;5000382;28;20052;-75
2022/10/26 12:23:33;;;;;;;4.30;1.77;;;19.60;99.90;;;;;;4988447;28;20077;-74
2022/10/26 12:26:23;;;;;;;7.13;1.90;;;19.50;99.90;;;;;;4985521;28;20026;-74
2022/10/26 12:29:24;;;;;;;6.53;2.08;;;19.60;99.90;;;;;;4994109;28;20077;-72
2022/10/26 12:31:49;;;;;;;7.18;2.03;;;19.50;99.90;;;;;;4991302;28;20038;-72
2022/10/26 12:34:22;;;;;;;4.93;2.00;;;19.70;99.90;;;;;;4989719;28;20037;-71
2022/10/26 12:36:54;;;;;;;5.22;1.90;;;19.70;99.90;;;;;;4994960;28;20170;-71
2022/10/26 12:39:35;;;;;;;3.95;1.80;;;19.70;99.90;;;;;;4990122;28;20173;-72
2022/10/26 12:42:04;;;;;;;5.15;1.75;;;19.50;99.90;;;;;;5000188;28;20177;-74
2022/10/26 12:44:40;;;;;;;9.23;1.90;;;19.60;99.90;;;;;;4987940;28;20038;-74
2022/10/26 12:47:07;;;;;;;6.35;1.70;;;19.90;99.90;;;;;;4994612;28;20037;-74
2022/10/26 12:50:06;;;;;;;7.65;1.73;;;20.00;99.90;;;;;;4995650;28;20023;-74
2022/10/26 12:52:52;;;;;;;4.53;1.92;;;20.10;99.90;;;;;;4995934;28;20030;-74
2022/10/26 12:55:38;;;;;;;5.75;2.53;;;20.10;99.90;;;;;;4990271;28;20026;-74
2022/10/26 12:58:15;;;;;;;4.13;1.55;;;20.10;99.90;;;;;;5001579;28;20061;-74
2022/10/26 13:00:59;;;;;;;8.50;1.80;;;20.10;99.90;;;;;;4994584;28;20045;-74
2022/10/26 13:03:37;;;;;;;2.60;1.30;;;20.00;99.90;;;;;;4994273;28;20058;-73
2022/10/26 13:06:16;;;;;;;7.03;2.38;;;19.80;99.90;;;;;;4996225;28;20032;-73
2022/10/26 13:08:48;;;;;;;6.82;1.88;;;19.90;99.90;;;;;;4998184;28;20464;-74
2022/10/26 13:11:22;;;;;;;4.28;1.90;;;19.90;99.90;;;;;;4988273;28;20038;-73